Time;durP1;ratioP1;P1;durP2;ratioP2;P2;SDS_P1;SDS_P2;PMS_P1;PMS_P2;Temp;Humidity;BMP_temperature;BMP_pressure;BME280_temperature;BME280_humidity;BME280_pressure;Samples;Min_cycle;Max_cycle;Signal;HPM_P1;HPM_P2
2022/06/28 03:01:13;;;;;;;0.70;0.60;;;19.10;81.80;;;;;;5822105;23;20999;-72
2022/06/28 03:03:40;;;;;;;0.70;0.60;;;19.10;81.70;;;;;;4997409;28;20434;-72
2022/06/28 03:06:07;;;;;;;0.70;0.50;;;19.00;81.80;;;;;;4997294;28;20515;-73
2022/06/28 03:08:33;;;;;;;0.70;0.60;;;19.10;81.80;;;;;;4997320;28;20452;-73
2022/06/28 03:11:00;;;;;;;0.70;0.50;;;19.00;81.70;;;;;;4996917;28;20984;-73
2022/06/28 03:13:27;;;;;;;0.80;0.60;;;19.00;81.80;;;;;;4997213;28;20487;-73
2022/06/28 03:15:54;;;;;;;0.70;0.50;;;19.00;81.80;;;;;;4998640;28;20505;-72
2022/06/28 03:18:23;;;;;;;0.70;0.60;;;19.00;82.10;;;;;;4997681;28;20511;-73
2022/06/28 03:20:49;;;;;;;0.70;0.70;;;19.00;82.00;;;;;;4997021;28;20489;-73
2022/06/28 03:23:16;;;;;;;1.63;0.60;;;19.00;81.90;;;;;;4997038;28;20499;-72
2022/06/28 03:25:43;;;;;;;0.80;0.60;;;19.00;82.30;;;;;;4996931;28;20488;-72
2022/06/28 03:28:09;;;;;;;0.77;0.60;;;19.00;82.20;;;;;;4997080;28;20448;-73
2022/06/28 03:30:36;;;;;;;0.70;0.57;;;19.00;82.10;;;;;;4996962;28;20507;-73
2022/06/28 03:33:03;;;;;;;0.80;0.50;;;19.00;82.20;;;;;;4996911;28;20444;-74
2022/06/28 03:35:31;;;;;;;0.70;0.50;;;19.00;82.20;;;;;;4996800;28;20453;-74
2022/06/28 03:37:58;;;;;;;0.70;0.60;;;19.00;82.40;;;;;;4996850;28;20449;-74
2022/06/28 03:40:25;;;;;;;0.70;0.60;;;19.00;82.50;;;;;;4996713;28;20499;-73
2022/06/28 03:42:52;;;;;;;0.70;0.50;;;19.00;82.40;;;;;;4996223;28;20453;-73
2022/06/28 03:45:19;;;;;;;0.70;0.60;;;19.00;82.60;;;;;;4996835;28;20496;-74
2022/06/28 03:47:45;;;;;;;0.83;0.60;;;19.10;82.60;;;;;;4996743;28;20455;-73
2022/06/28 03:50:12;;;;;;;0.70;0.50;;;19.00;82.90;;;;;;4996768;28;20544;-74
2022/06/28 03:52:40;;;;;;;0.70;0.50;;;19.10;82.90;;;;;;4996574;28;20469;-74
2022/06/28 03:55:08;;;;;;;0.70;0.60;;;19.20;83.00;;;;;;4996613;28;20500;-74
2022/06/28 03:57:35;;;;;;;0.70;0.60;;;19.20;82.90;;;;;;4996580;28;20449;-74
2022/06/28 04:00:01;;;;;;;0.70;0.63;;;19.20;83.00;;;;;;4996491;28;20539;-74
2022/06/28 04:02:28;;;;;;;0.80;0.70;;;19.20;82.90;;;;;;4996094;28;21046;-74
2022/06/28 04:04:55;;;;;;;0.70;0.50;;;19.20;82.90;;;;;;4996356;28;20488;-74
2022/06/28 04:07:21;;;;;;;0.70;0.60;;;19.20;82.80;;;;;;4996378;28;20449;-74
2022/06/28 04:09:49;;;;;;;1.53;0.63;;;19.30;82.60;;;;;;4996316;28;20500;-74
2022/06/28 04:12:17;;;;;;;0.70;0.60;;;19.30;82.60;;;;;;4996228;28;20465;-74
2022/06/28 04:14:43;;;;;;;0.70;0.60;;;19.30;82.50;;;;;;4995965;28;20532;-74
2022/06/28 04:17:10;;;;;;;0.70;0.60;;;19.40;82.30;;;;;;4996154;28;20797;-73
2022/06/28 04:19:38;;;;;;;0.70;0.60;;;19.40;82.20;;;;;;4995872;28;21003;-74
2022/06/28 04:22:05;;;;;;;0.70;0.60;;;19.40;82.30;;;;;;4996061;28;20473;-74
2022/06/28 04:24:32;;;;;;;0.70;0.50;;;19.40;82.20;;;;;;4995924;28;20535;-74
2022/06/28 04:27:01;;;;;;;1.00;0.70;;;19.40;82.00;;;;;;4996339;28;20499;-73
2022/06/28 04:29:28;;;;;;;0.70;0.50;;;19.40;82.10;;;;;;4995929;28;20548;-74
2022/06/28 04:31:55;;;;;;;1.33;0.60;;;19.40;82.40;;;;;;4995809;28;20505;-74
2022/06/28 04:34:22;;;;;;;1.10;0.70;;;19.40;82.40;;;;;;4996790;28;20521;-74
2022/06/28 04:36:49;;;;;;;0.70;0.50;;;19.50;82.30;;;;;;4995764;28;20496;-74
2022/06/28 04:39:15;;;;;;;0.70;0.60;;;19.40;82.20;;;;;;4995869;28;20452;-74
2022/06/28 04:41:42;;;;;;;0.70;0.50;;;19.50;82.00;;;;;;4995913;28;20472;-73
2022/06/28 04:44:10;;;;;;;0.90;0.70;;;19.50;82.10;;;;;;4995492;28;20536;-74
2022/06/28 04:46:38;;;;;;;0.70;0.60;;;19.60;82.00;;;;;;4995573;28;20863;-73
2022/06/28 04:49:05;;;;;;;0.70;0.60;;;19.50;82.30;;;;;;4995526;28;20464;-74
2022/06/28 04:51:32;;;;;;;0.70;0.60;;;19.60;82.60;;;;;;4995683;28;20465;-74
2022/06/28 04:53:58;;;;;;;0.70;0.60;;;19.70;82.30;;;;;;4994710;28;20519;-74
2022/06/28 04:56:25;;;;;;;0.70;0.60;;;19.70;82.50;;;;;;4995339;28;20445;-72
2022/06/28 04:58:52;;;;;;;0.70;0.60;;;19.70;82.50;;;;;;4995287;28;20449;-71
2022/06/28 05:01:20;;;;;;;0.77;0.60;;;19.70;82.10;;;;;;4995102;28;20548;-72
2022/06/28 05:03:46;;;;;;;0.80;0.70;;;19.70;82.10;;;;;;4995173;28;20457;-72
2022/06/28 05:06:13;;;;;;;0.70;0.60;;;19.80;81.70;;;;;;4995181;28;20476;-72
2022/06/28 05:08:40;;;;;;;1.40;0.70;;;19.80;81.50;;;;;;4995184;28;20445;-72
2022/06/28 05:11:07;;;;;;;0.70;0.60;;;19.80;81.50;;;;;;4995096;28;20465;-72
2022/06/28 05:13:34;;;;;;;0.70;0.70;;;19.80;81.40;;;;;;4995076;28;20489;-72
2022/06/28 05:16:01;;;;;;;0.70;0.60;;;19.70;81.40;;;;;;4994976;28;20449;-72
2022/06/28 05:18:29;;;;;;;0.70;0.60;;;19.80;81.60;;;;;;4994959;28;20501;-72
2022/06/28 05:20:56;;;;;;;0.70;0.60;;;19.70;81.80;;;;;;4994932;28;20527;-71
2022/06/28 05:23:22;;;;;;;0.70;0.60;;;19.70;82.00;;;;;;4994937;28;20449;-72
2022/06/28 05:25:49;;;;;;;0.70;0.60;;;19.70;81.80;;;;;;4994691;28;20535;-72
2022/06/28 05:28:16;;;;;;;0.70;0.60;;;19.70;82.00;;;;;;4994762;28;20503;-71
2022/06/28 05:30:42;;;;;;;0.70;0.60;;;19.60;82.80;;;;;;4994675;28;20504;-72
2022/06/28 05:33:09;;;;;;;0.83;0.83;;;19.60;83.10;;;;;;4994663;28;20449;-72
2022/06/28 05:35:37;;;;;;;0.90;0.90;;;19.70;83.10;;;;;;4994848;28;20445;-72
2022/06/28 05:38:04;;;;;;;0.90;0.90;;;19.70;83.40;;;;;;4994601;28;20495;-72
2022/06/28 05:40:31;;;;;;;0.90;0.90;;;19.70;83.10;;;;;;4994475;28;20448;-72
2022/06/28 05:42:57;;;;;;;0.70;0.70;;;19.80;82.90;;;;;;4994507;28;20508;-71
2022/06/28 05:45:24;;;;;;;0.90;0.90;;;19.90;82.80;;;;;;4994463;28;20484;-71
2022/06/28 05:47:51;;;;;;;1.00;0.90;;;19.90;82.80;;;;;;4994453;28;20526;-71
2022/06/28 05:50:19;;;;;;;0.87;0.87;;;19.90;82.40;;;;;;4994440;28;20535;-72
2022/06/28 05:52:47;;;;;;;0.90;0.90;;;19.90;82.90;;;;;;4994365;28;20495;-71
2022/06/28 05:55:14;;;;;;;0.80;0.80;;;19.80;82.90;;;;;;4994229;28;20984;-71
2022/06/28 05:57:41;;;;;;;0.87;0.87;;;19.90;82.90;;;;;;4993930;28;20875;-71
2022/06/28 06:00:08;;;;;;;0.90;0.90;;;19.70;83.00;;;;;;4993875;28;20948;-71
2022/06/28 06:02:35;;;;;;;1.17;1.10;;;19.70;83.20;;;;;;4993823;28;20535;-71
2022/06/28 06:05:02;;;;;;;0.90;0.90;;;19.60;83.40;;;;;;4994234;28;20829;-71
2022/06/28 06:07:30;;;;;;;0.87;0.87;;;19.60;83.50;;;;;;4994183;28;20464;-71
2022/06/28 06:09:58;;;;;;;1.00;1.00;;;19.70;83.40;;;;;;4994160;28;20480;-71
2022/06/28 06:12:25;;;;;;;0.90;0.90;;;19.90;83.10;;;;;;4994052;28;20885;-70
2022/06/28 06:14:51;;;;;;;1.00;1.00;;;20.00;82.60;;;;;;4993816;28;20952;-71
2022/06/28 06:17:19;;;;;;;0.90;0.90;;;20.00;82.70;;;;;;4993878;28;20446;-71
2022/06/28 06:19:46;;;;;;;0.90;0.90;;;19.80;82.40;;;;;;4994010;28;20453;-70
2022/06/28 06:22:12;;;;;;;1.33;1.20;;;19.70;82.30;;;;;;4993846;28;20532;-71
2022/06/28 06:24:39;;;;;;;1.00;1.00;;;19.80;82.60;;;;;;4993912;28;20453;-74
2022/06/28 06:27:07;;;;;;;0.93;0.90;;;20.10;82.50;;;;;;4994044;28;20457;-73
2022/06/28 06:29:35;;;;;;;1.27;0.97;;;20.00;82.50;;;;;;4994115;28;20456;-73
2022/06/28 06:32:02;;;;;;;1.00;1.00;;;19.80;82.40;;;;;;4993884;28;20469;-72
2022/06/28 06:34:29;;;;;;;1.10;1.00;;;19.70;83.00;;;;;;4993842;28;20506;-75
2022/06/28 06:36:55;;;;;;;1.10;1.00;;;19.70;83.30;;;;;;4993933;28;20491;-72
2022/06/28 06:39:22;;;;;;;0.80;0.80;;;19.80;82.60;;;;;;4993826;28;20453;-72
2022/06/28 06:41:48;;;;;;;1.03;1.03;;;19.90;82.50;;;;;;4993927;28;20496;-72
2022/06/28 06:44:16;;;;;;;1.03;0.90;;;19.70;82.50;;;;;;4993808;28;20453;-73
2022/06/28 06:46:43;;;;;;;1.00;1.00;;;19.80;82.80;;;;;;4993707;28;20484;-72
2022/06/28 06:49:14;;;;;;;1.10;1.00;;;19.80;83.00;;;;;;4993513;28;20468;-73
2022/06/28 06:51:43;;;;;;;0.90;0.90;;;19.90;82.70;;;;;;4993926;28;20469;-74
2022/06/28 06:54:10;;;;;;;0.70;0.67;;;19.90;82.90;;;;;;4993784;28;20492;-73
2022/06/28 06:56:36;;;;;;;1.00;0.90;;;19.90;82.80;;;;;;4993811;28;20517;-73
2022/06/28 06:59:03;;;;;;;1.13;1.00;;;20.00;82.50;;;;;;4993655;28;20453;-74
2022/06/28 07:01:33;;;;;;;0.90;0.90;;;19.90;82.60;;;;;;4995944;28;20527;-74
2022/06/28 07:04:00;;;;;;;0.90;0.90;;;20.00;82.30;;;;;;4994814;28;20956;-74
2022/06/28 07:06:27;;;;;;;0.80;0.80;;;20.00;82.70;;;;;;4993802;28;21074;-74
2022/06/28 07:08:53;;;;;;;0.90;0.90;;;19.80;82.60;;;;;;4994392;28;20447;-74
2022/06/28 07:11:20;;;;;;;0.80;0.80;;;19.80;82.90;;;;;;4994386;28;20473;-74
2022/06/28 07:13:47;;;;;;;0.90;0.90;;;19.70;83.30;;;;;;4994917;28;20453;-74
2022/06/28 07:16:13;;;;;;;0.80;0.80;;;19.70;83.10;;;;;;4994322;28;20500;-71
2022/06/28 07:18:42;;;;;;;1.17;1.00;;;19.80;83.30;;;;;;4997226;28;20503;-71
2022/06/28 07:21:09;;;;;;;0.80;0.80;;;19.60;83.00;;;;;;4997035;28;20469;-71
2022/06/28 07:23:35;;;;;;;1.20;0.90;;;19.50;83.50;;;;;;4997145;28;20511;-72
2022/06/28 07:26:02;;;;;;;0.87;0.87;;;19.70;83.50;;;;;;4996628;28;20887;-71
2022/06/28 07:28:29;;;;;;;0.93;0.93;;;19.80;83.50;;;;;;4997036;28;20796;-71
2022/06/28 07:30:55;;;;;;;0.80;0.80;;;19.80;83.50;;;;;;4996836;28;20469;-73
2022/06/28 07:33:22;;;;;;;1.20;1.00;;;19.90;83.70;;;;;;4996844;28;20453;-71
2022/06/28 07:35:50;;;;;;;0.80;0.80;;;19.90;83.20;;;;;;4996836;28;20507;-71
2022/06/28 07:38:17;;;;;;;1.00;1.00;;;19.90;83.20;;;;;;4996741;28;20457;-72
2022/06/28 07:40:43;;;;;;;0.93;0.90;;;20.00;83.60;;;;;;4996655;28;20485;-72
2022/06/28 07:43:10;;;;;;;0.90;0.90;;;20.00;83.30;;;;;;4996730;28;20503;-72
2022/06/28 07:45:39;;;;;;;0.80;0.80;;;20.00;83.40;;;;;;4996586;28;20489;-72
2022/06/28 07:48:08;;;;;;;1.10;1.00;;;19.90;83.80;;;;;;4996572;28;20457;-72
2022/06/28 07:53:20;;;;;;;1.20;0.90;;;20.30;83.60;;;;;;4996445;28;20413;-72
2022/06/28 07:55:47;;;;;;;0.90;0.90;;;20.40;82.90;;;;;;4996462;28;20465;-72
2022/06/28 07:58:16;;;;;;;0.97;0.90;;;20.30;82.10;;;;;;4996403;28;20449;-72
2022/06/28 08:00:43;;;;;;;0.87;0.80;;;20.20;82.70;;;;;;4995909;28;20453;-73
2022/06/28 08:03:10;;;;;;;1.07;1.00;;;20.20;82.10;;;;;;4996322;28;20437;-72
2022/06/28 08:05:36;;;;;;;1.00;1.00;;;20.10;83.10;;;;;;4996364;28;20488;-72
2022/06/28 08:08:03;;;;;;;1.00;1.00;;;20.40;82.90;;;;;;4996239;28;20453;-71
2022/06/28 08:10:31;;;;;;;1.10;1.00;;;20.60;82.70;;;;;;4995866;28;20457;-72
2022/06/28 08:12:58;;;;;;;0.90;0.90;;;20.80;81.40;;;;;;4996156;28;20460;-72
2022/06/28 08:15:24;;;;;;;0.83;0.83;;;21.00;81.00;;;;;;4996185;28;20453;-72
2022/06/28 08:17:51;;;;;;;0.90;0.80;;;21.30;79.80;;;;;;4995757;28;20952;-71
2022/06/28 08:20:18;;;;;;;0.80;0.80;;;21.60;79.50;;;;;;4996033;28;20876;-71
2022/06/28 08:22:44;;;;;;;1.10;1.00;;;21.60;77.70;;;;;;4995919;28;20469;-69
2022/06/28 08:25:11;;;;;;;1.00;0.90;;;21.50;77.30;;;;;;4995888;28;20449;-70
2022/06/28 08:27:39;;;;;;;1.00;0.90;;;21.70;77.60;;;;;;4995688;28;20459;-72
2022/06/28 08:30:07;;;;;;;0.80;0.80;;;21.90;77.50;;;;;;4994878;28;20504;-71
2022/06/28 08:32:34;;;;;;;0.83;0.80;;;22.10;77.20;;;;;;4995724;28;20564;-71
2022/06/28 08:35:01;;;;;;;1.43;0.80;;;22.20;76.00;;;;;;4995882;28;20507;-70
2022/06/28 08:37:27;;;;;;;0.70;0.70;;;22.40;75.00;;;;;;4995331;28;20960;-70
2022/06/28 08:39:54;;;;;;;0.80;0.80;;;22.50;73.90;;;;;;4995694;28;20532;-70
2022/06/28 08:42:27;;;;;;;0.80;0.80;;;22.60;73.90;;;;;;4995519;28;20481;-70
2022/06/28 08:45:01;;;;;;;0.77;0.77;;;22.60;73.90;;;;;;4995752;28;20437;-71
2022/06/28 08:47:33;;;;;;;0.90;0.90;;;22.70;74.30;;;;;;4995128;28;20843;-70
2022/06/28 08:50:06;;;;;;;1.67;0.80;;;23.00;73.40;;;;;;4995454;28;20434;-70
2022/06/28 08:52:34;;;;;;;0.80;0.80;;;22.90;71.80;;;;;;4995483;28;20477;-70
2022/06/28 08:55:01;;;;;;;0.70;0.70;;;22.70;72.90;;;;;;4995063;28;20453;-71
2022/06/28 08:57:30;;;;;;;0.80;0.80;;;22.80;72.60;;;;;;4995391;28;20528;-71
2022/06/28 08:59:58;;;;;;;0.77;0.77;;;22.80;73.30;;;;;;4995349;28;20452;-70
2022/06/28 09:02:25;;;;;;;0.70;0.70;;;22.80;72.40;;;;;;4994823;28;20489;-71
2022/06/28 09:04:53;;;;;;;0.80;0.80;;;22.80;72.60;;;;;;4995373;28;20457;-71
2022/06/28 09:07:20;;;;;;;0.80;0.70;;;22.60;73.20;;;;;;4994809;28;20543;-70
2022/06/28 09:09:47;;;;;;;0.80;0.77;;;22.40;73.80;;;;;;4994801;28;20984;-70
2022/06/28 09:12:14;;;;;;;0.80;0.80;;;22.40;74.20;;;;;;4994731;28;20508;-70
2022/06/28 09:14:41;;;;;;;0.70;0.70;;;22.30;75.30;;;;;;4994950;28;20872;-70
2022/06/28 09:17:21;;;;;;;0.90;0.90;;;22.60;74.40;;;;;;4996550;28;20869;-69
2022/06/28 09:19:49;;;;;;;0.77;0.77;;;22.60;73.70;;;;;;4995041;28;20445;-70
2022/06/28 09:22:30;;;;;;;1.30;0.80;;;22.80;74.70;;;;;;4994701;28;20476;-70
2022/06/28 09:24:57;;;;;;;0.77;0.77;;;23.00;73.60;;;;;;4994757;28;20531;-70
2022/06/28 09:27:31;;;;;;;0.80;0.80;;;23.10;73.20;;;;;;4994583;28;20485;-69
2022/06/28 09:29:58;;;;;;;0.90;0.90;;;23.30;73.00;;;;;;4994374;28;20430;-69
2022/06/28 09:32:33;;;;;;;0.80;0.80;;;23.20;73.00;;;;;;4994647;28;20485;-69
2022/06/28 09:35:01;;;;;;;2.90;0.70;;;23.10;72.10;;;;;;4994685;28;20428;-69
2022/06/28 09:37:36;;;;;;;0.77;0.77;;;23.10;71.90;;;;;;4994446;28;20477;-68
2022/06/28 09:40:15;;;;;;;0.70;0.70;;;23.20;71.30;;;;;;4993867;28;21023;-70
2022/06/28 09:42:43;;;;;;;5.47;0.70;;;23.20;72.30;;;;;;4994454;28;20468;-69
2022/06/28 09:45:11;;;;;;;0.80;0.70;;;23.20;72.40;;;;;;4994489;28;20488;-70
2022/06/28 09:47:44;;;;;;;0.70;0.70;;;23.10;71.10;;;;;;4994048;28;21020;-69
2022/06/28 09:50:13;;;;;;;0.80;0.70;;;23.10;71.40;;;;;;4994350;28;20843;-70
2022/06/28 09:52:44;;;;;;;0.80;0.80;;;22.90;70.70;;;;;;4994242;28;20524;-69
2022/06/28 09:55:11;;;;;;;0.70;0.70;;;22.90;71.40;;;;;;4994292;28;20878;-69
2022/06/28 09:57:39;;;;;;;1.03;0.70;;;22.80;73.10;;;;;;4994294;28;20507;-71
2022/06/28 10:00:08;;;;;;;0.90;0.80;;;23.10;73.70;;;;;;4994398;28;20791;-69
2022/06/28 10:02:35;;;;;;;0.80;0.70;;;23.10;74.20;;;;;;4994291;28;20868;-70
2022/06/28 10:05:03;;;;;;;0.70;0.70;;;23.40;73.40;;;;;;4995691;28;20481;-72
2022/06/28 10:07:31;;;;;;;0.90;0.70;;;23.40;70.10;;;;;;4994288;28;20484;-70
2022/06/28 10:09:59;;;;;;;0.70;0.70;;;23.20;70.20;;;;;;4994113;28;20456;-69
2022/06/28 10:15:10;;;;;;;0.70;0.70;;;23.00;69.00;;;;;;4994560;28;20409;-69
2022/06/28 10:17:55;;;;;;;0.70;0.60;;;23.00;70.80;;;;;;4994063;28;20504;-69
2022/06/28 10:20:26;;;;;;;0.80;0.70;;;23.20;69.80;;;;;;4994143;28;20433;-68
2022/06/28 10:22:53;;;;;;;0.70;0.60;;;23.50;73.10;;;;;;4994139;28;21005;-69
2022/06/28 10:25:22;;;;;;;0.70;0.60;;;23.80;71.00;;;;;;4993979;28;20503;-69
2022/06/28 10:27:50;;;;;;;1.07;0.80;;;24.10;71.20;;;;;;4993890;28;20559;-69
2022/06/28 10:30:25;;;;;;;0.80;0.80;;;24.00;68.10;;;;;;4994159;28;20584;-70
2022/06/28 10:32:55;;;;;;;0.70;0.63;;;24.20;68.30;;;;;;4993751;28;20440;-71
2022/06/28 10:36:01;;;;;;;0.70;0.60;;;24.40;67.60;;;;;;4993884;28;20453;-70
2022/06/28 10:38:30;;;;;;;0.70;0.60;;;24.40;65.90;;;;;;4994216;28;20437;-69
2022/06/28 10:40:56;;;;;;;0.70;0.60;;;24.40;67.10;;;;;;4993890;28;20527;-69
2022/06/28 10:44:05;;;;;;;0.70;0.60;;;24.30;67.80;;;;;;4993842;28;20479;-69
2022/06/28 10:46:31;;;;;;;0.70;0.67;;;24.30;66.30;;;;;;4994641;28;20812;-69
2022/06/28 10:49:09;;;;;;;0.70;0.60;;;24.30;66.60;;;;;;4993966;28;20454;-69
2022/06/28 10:51:41;;;;;;;1.00;0.90;;;24.50;69.00;;;;;;4994814;28;20481;-71
2022/06/28 10:54:10;;;;;;;1.27;0.70;;;24.50;66.60;;;;;;4997704;28;20437;-72
2022/06/28 10:56:39;;;;;;;0.70;0.60;;;24.60;66.40;;;;;;4997610;28;20445;-72
2022/06/28 10:59:08;;;;;;;0.70;0.60;;;24.70;66.40;;;;;;4997484;28;20452;-70
2022/06/28 11:01:54;;;;;;;0.70;0.57;;;24.70;67.00;;;;;;4997440;28;20481;-70
2022/06/28 11:04:29;;;;;;;0.80;0.60;;;24.70;66.70;;;;;;4997908;28;20445;-71
2022/06/28 11:06:59;;;;;;;0.70;0.60;;;24.70;65.80;;;;;;4997922;28;20476;-70
2022/06/28 11:09:47;;;;;;;0.70;0.60;;;24.50;66.20;;;;;;4997597;28;20952;-70
2022/06/28 11:12:15;;;;;;;0.70;0.60;;;24.40;66.60;;;;;;4997677;28;20508;-73
2022/06/28 11:14:48;;;;;;;0.90;0.60;;;24.70;66.90;;;;;;4997321;28;20449;-73
2022/06/28 11:17:17;;;;;;;0.70;0.60;;;25.00;66.90;;;;;;4997401;28;20857;-73
2022/06/28 11:19:50;;;;;;;0.80;0.60;;;25.20;64.90;;;;;;4997898;28;20503;-74
2022/06/28 11:22:28;;;;;;;0.70;0.60;;;25.30;65.30;;;;;;4997305;28;20484;-72
2022/06/28 11:24:58;;;;;;;0.70;0.60;;;25.30;63.90;;;;;;4997071;28;20484;-70
2022/06/28 11:27:25;;;;;;;1.33;0.70;;;25.20;65.00;;;;;;4997263;28;20531;-70
2022/06/28 11:30:03;;;;;;;0.70;0.60;;;25.30;65.00;;;;;;4997005;28;20477;-70
2022/06/28 11:32:32;;;;;;;0.70;0.60;;;25.20;64.70;;;;;;4996910;28;20468;-70
2022/06/28 11:35:01;;;;;;;0.70;0.60;;;24.80;64.70;;;;;;4996580;28;20987;-71
2022/06/28 11:37:31;;;;;;;0.70;0.67;;;24.50;66.00;;;;;;4996808;28;20441;-70
2022/06/28 11:40:02;;;;;;;0.70;0.60;;;24.60;65.70;;;;;;4996785;28;20511;-70
2022/06/28 11:42:29;;;;;;;0.70;0.60;;;24.60;65.40;;;;;;4996932;28;20474;-70
2022/06/28 11:44:57;;;;;;;0.70;0.50;;;24.80;64.70;;;;;;4996672;28;20449;-71
2022/06/28 11:47:24;;;;;;;0.70;0.60;;;24.70;64.70;;;;;;4996885;28;20489;-70
2022/06/28 11:50:13;;;;;;;0.70;0.63;;;24.60;66.10;;;;;;4996332;28;20873;-70
2022/06/28 11:52:51;;;;;;;0.80;0.60;;;24.30;66.00;;;;;;4996138;28;20875;-70
2022/06/28 11:55:36;;;;;;;0.70;0.60;;;24.30;67.70;;;;;;4996483;28;20433;-70
2022/06/28 11:58:13;;;;;;;0.70;0.60;;;24.60;67.90;;;;;;4996476;28;20484;-71
2022/06/28 12:00:40;;;;;;;0.70;0.60;;;25.00;66.20;;;;;;4996107;28;20449;-70
2022/06/28 12:03:07;;;;;;;0.80;0.60;;;25.10;66.00;;;;;;4997034;28;20441;-70
2022/06/28 12:05:35;;;;;;;0.70;0.60;;;25.00;65.20;;;;;;4996442;28;20449;-71
2022/06/28 12:08:04;;;;;;;0.70;0.60;;;25.00;65.10;;;;;;4996276;28;20486;-70
2022/06/28 12:10:34;;;;;;;0.70;0.63;;;25.10;65.00;;;;;;4996136;28;20445;-70
2022/06/28 12:13:11;;;;;;;0.80;0.63;;;25.20;65.00;;;;;;4996454;28;20441;-71
2022/06/28 12:15:38;;;;;;;0.70;0.60;;;25.30;64.60;;;;;;4996338;28;20448;-70
2022/06/28 12:18:07;;;;;;;0.70;0.60;;;25.30;64.30;;;;;;4996232;28;20499;-70
2022/06/28 12:20:34;;;;;;;0.70;0.60;;;25.40;65.10;;;;;;4996251;28;20449;-71
2022/06/28 12:23:03;;;;;;;0.70;0.50;;;25.10;64.70;;;;;;4996532;28;20496;-70
2022/06/28 12:25:33;;;;;;;0.80;0.70;;;25.20;65.10;;;;;;4996483;28;20449;-69
2022/06/28 12:27:59;;;;;;;0.70;0.60;;;25.00;65.70;;;;;;4996630;28;20866;-70
2022/06/28 12:30:26;;;;;;;0.70;0.60;;;24.80;65.80;;;;;;4996179;28;20448;-71
2022/06/28 12:32:55;;;;;;;0.90;0.70;;;24.90;66.50;;;;;;4996057;28;20457;-70
2022/06/28 12:35:23;;;;;;;0.70;0.60;;;25.00;65.80;;;;;;4995988;28;20445;-70
2022/06/28 12:37:50;;;;;;;0.70;0.60;;;25.10;66.00;;;;;;4995970;28;20449;-69
2022/06/28 12:40:18;;;;;;;0.70;0.60;;;24.90;64.80;;;;;;4995827;28;20453;-69
2022/06/28 12:42:46;;;;;;;0.70;0.60;;;24.40;65.20;;;;;;4995491;28;20899;-69
2022/06/28 12:45:13;;;;;;;0.70;0.60;;;24.40;66.20;;;;;;4995722;28;20548;-70
2022/06/28 12:47:41;;;;;;;0.70;0.60;;;24.40;67.00;;;;;;4995615;28;20484;-70
2022/06/28 12:50:13;;;;;;;0.70;0.60;;;24.40;67.80;;;;;;4995537;28;20468;-70
2022/06/28 12:52:40;;;;;;;0.70;0.60;;;24.40;66.90;;;;;;4995362;28;20984;-70
2022/06/28 12:55:08;;;;;;;0.70;0.50;;;24.50;66.20;;;;;;4995227;28;20904;-70
2022/06/28 12:57:35;;;;;;;0.70;0.60;;;24.50;66.60;;;;;;4995439;28;20495;-70
2022/06/28 13:00:05;;;;;;;0.70;0.60;;;24.30;65.60;;;;;;4995336;28;20453;-70
2022/06/28 13:02:32;;;;;;;0.70;0.57;;;24.20;66.80;;;;;;4994888;28;20490;-70
2022/06/28 13:04:58;;;;;;;1.17;0.70;;;24.20;67.00;;;;;;4995294;28;20449;-69
2022/06/28 13:07:25;;;;;;;0.70;0.70;;;24.40;67.70;;;;;;4995079;28;20535;-70
2022/06/28 13:09:52;;;;;;;0.70;0.60;;;24.40;66.30;;;;;;4994881;28;20885;-70
2022/06/28 13:12:19;;;;;;;0.70;0.60;;;24.20;66.80;;;;;;4995649;28;20473;-71
2022/06/28 13:14:45;;;;;;;1.43;0.60;;;24.10;67.30;;;;;;4994874;28;20449;-70
2022/06/28 13:17:13;;;;;;;0.70;0.57;;;24.20;67.30;;;;;;4995323;28;20870;-70
2022/06/28 13:19:40;;;;;;;0.70;0.60;;;24.20;66.30;;;;;;4995984;28;20512;-70
2022/06/28 13:22:07;;;;;;;0.70;0.50;;;24.20;66.90;;;;;;4995323;28;20531;-70
2022/06/28 13:24:35;;;;;;;0.70;0.60;;;24.20;66.30;;;;;;4995049;28;20445;-69
2022/06/28 13:27:02;;;;;;;0.70;0.60;;;24.10;66.80;;;;;;4994836;28;20531;-69
2022/06/28 13:29:29;;;;;;;0.70;0.50;;;24.30;67.50;;;;;;4994950;28;20484;-70
2022/06/28 13:31:55;;;;;;;0.90;0.60;;;24.50;66.80;;;;;;4994458;28;20469;-70
2022/06/28 13:34:23;;;;;;;0.70;0.60;;;24.80;65.80;;;;;;4994858;28;20453;-69
2022/06/28 13:36:50;;;;;;;0.70;0.60;;;25.20;66.00;;;;;;4994616;28;20630;-70
2022/06/28 13:39:17;;;;;;;0.70;0.60;;;25.30;64.10;;;;;;4994583;28;20469;-69
2022/06/28 13:41:43;;;;;;;0.70;0.50;;;25.50;63.50;;;;;;4994378;28;20473;-69
2022/06/28 13:44:12;;;;;;;0.80;0.60;;;25.60;62.70;;;;;;4994445;28;20445;-70
2022/06/28 13:46:39;;;;;;;0.80;0.60;;;25.70;62.40;;;;;;4994365;28;20548;-69
2022/06/28 13:49:06;;;;;;;0.70;0.60;;;25.40;63.40;;;;;;4994206;28;20488;-69
2022/06/28 13:51:34;;;;;;;1.20;0.73;;;25.10;64.30;;;;;;4993986;28;20825;-69
2022/06/28 13:54:00;;;;;;;0.70;0.60;;;25.20;64.40;;;;;;4994287;28;20449;-69
2022/06/28 13:56:27;;;;;;;0.70;0.60;;;25.40;63.30;;;;;;4994231;28;20449;-69
2022/06/28 13:58:54;;;;;;;0.70;0.60;;;25.50;62.40;;;;;;4994733;28;20448;-69
2022/06/28 14:01:21;;;;;;;0.70;0.50;;;25.60;62.30;;;;;;4993748;28;21063;-70
2022/06/28 14:03:47;;;;;;;0.90;0.60;;;25.30;62.20;;;;;;4994139;28;20460;-70
2022/06/28 14:06:14;;;;;;;0.70;0.60;;;25.00;60.90;;;;;;4994077;28;20449;-69
2022/06/28 14:08:42;;;;;;;0.70;0.57;;;24.90;61.20;;;;;;4994041;28;20511;-69
2022/06/28 14:11:09;;;;;;;0.70;0.60;;;25.00;59.90;;;;;;4994247;28;20524;-69
2022/06/28 14:13:36;;;;;;;0.70;0.60;;;25.30;62.00;;;;;;4993970;28;20451;-71
2022/06/28 14:16:03;;;;;;;1.00;0.60;;;25.20;61.30;;;;;;4994205;28;20456;-71
2022/06/28 14:18:29;;;;;;;1.30;0.60;;;24.90;61.60;;;;;;4994153;28;20441;-71
2022/06/28 14:20:56;;;;;;;0.70;0.53;;;25.00;62.40;;;;;;4994509;28;20465;-72
2022/06/28 14:23:23;;;;;;;0.70;0.60;;;24.90;62.30;;;;;;4994368;28;20445;-72
2022/06/28 14:25:51;;;;;;;0.70;0.60;;;24.90;62.50;;;;;;4995032;28;20452;-71
2022/06/28 14:28:18;;;;;;;0.70;0.60;;;25.10;62.50;;;;;;4998152;28;20504;-71
2022/06/28 14:30:46;;;;;;;0.70;0.60;;;25.20;62.90;;;;;;4998537;28;20507;-71
2022/06/28 14:33:13;;;;;;;0.70;0.67;;;25.30;62.70;;;;;;4998844;28;20551;-72
2022/06/28 14:35:40;;;;;;;0.70;0.50;;;25.30;62.10;;;;;;4998679;28;20448;-72
2022/06/28 14:38:07;;;;;;;0.70;0.50;;;25.30;62.10;;;;;;4998072;28;20872;-71
2022/06/28 14:40:34;;;;;;;0.70;0.60;;;25.40;63.00;;;;;;4997942;28;20983;-71
2022/06/28 14:43:02;;;;;;;0.80;0.60;;;25.50;61.90;;;;;;4998224;28;20449;-71
2022/06/28 14:45:29;;;;;;;0.70;0.60;;;25.40;61.30;;;;;;4998698;28;20445;-71
2022/06/28 14:47:56;;;;;;;0.80;0.60;;;25.10;62.10;;;;;;4998029;28;20481;-71
2022/06/28 14:50:23;;;;;;;0.70;0.60;;;24.90;62.30;;;;;;4998412;28;20444;-72
2022/06/28 14:52:49;;;;;;;0.70;0.50;;;24.90;62.50;;;;;;4997859;28;20457;-72
2022/06/28 14:55:16;;;;;;;0.70;0.60;;;24.70;61.10;;;;;;4998134;28;20799;-71
2022/06/28 14:57:44;;;;;;;0.70;0.60;;;24.70;62.20;;;;;;4997982;28;20877;-72
2022/06/28 15:00:13;;;;;;;0.70;0.60;;;24.70;63.30;;;;;;4997625;28;20912;-72
2022/06/28 15:02:40;;;;;;;0.70;0.60;;;24.70;62.80;;;;;;4997562;28;20488;-71
2022/06/28 15:05:07;;;;;;;0.70;0.50;;;24.70;63.00;;;;;;4997726;28;20452;-71
2022/06/28 15:07:34;;;;;;;0.70;0.60;;;24.60;63.00;;;;;;4997488;28;20452;-71
2022/06/28 15:10:01;;;;;;;0.70;0.60;;;24.70;62.60;;;;;;4997597;28;20883;-72
2022/06/28 15:12:28;;;;;;;0.70;0.57;;;24.50;63.10;;;;;;4997302;28;20464;-71
2022/06/28 15:14:54;;;;;;;0.70;0.60;;;24.50;62.10;;;;;;4997593;28;20453;-71
2022/06/28 15:17:23;;;;;;;0.70;0.60;;;24.50;62.60;;;;;;4998772;28;20456;-71
2022/06/28 15:19:49;;;;;;;0.70;0.50;;;24.60;62.00;;;;;;4997162;28;20495;-71
2022/06/28 15:33:13;;;;;;;0.70;0.50;;;25.00;62.60;;;;;;4996995;28;20421;-72
2022/06/28 15:35:40;;;;;;;0.80;0.60;;;24.70;62.50;;;;;;4997460;28;20453;-72
2022/06/28 15:38:07;;;;;;;1.10;0.67;;;24.40;63.00;;;;;;4996513;28;20445;-72
2022/06/28 15:40:34;;;;;;;0.70;0.50;;;24.40;64.20;;;;;;4996907;28;20511;-72
2022/06/28 15:43:00;;;;;;;0.70;0.53;;;24.40;63.80;;;;;;4997037;28;20508;-71
2022/06/28 15:45:28;;;;;;;0.70;0.60;;;24.50;63.40;;;;;;4996666;28;20967;-72
2022/06/28 15:47:54;;;;;;;0.70;0.60;;;24.50;64.30;;;;;;4996581;28;20481;-71
2022/06/28 15:50:23;;;;;;;0.70;0.60;;;24.50;63.90;;;;;;4996661;28;20505;-71
2022/06/28 15:52:49;;;;;;;0.70;0.60;;;24.40;64.20;;;;;;4996709;28;20465;-71
2022/06/28 15:55:16;;;;;;;0.70;0.60;;;24.40;64.00;;;;;;4996644;28;20504;-70
2022/06/28 15:57:43;;;;;;;0.70;0.60;;;24.50;64.10;;;;;;4996684;28;20441;-72
2022/06/28 16:00:11;;;;;;;0.80;0.60;;;24.50;64.00;;;;;;4996446;28;20476;-72
2022/06/28 16:02:39;;;;;;;0.70;0.60;;;24.50;63.30;;;;;;4996346;28;20504;-71
2022/06/28 16:05:07;;;;;;;0.70;0.50;;;24.40;63.60;;;;;;4996399;28;20449;-70
2022/06/28 16:07:35;;;;;;;0.70;0.60;;;24.40;64.30;;;;;;4996420;28;20528;-73
2022/06/28 16:10:03;;;;;;;0.83;0.70;;;24.40;65.00;;;;;;4996255;28;20504;-71